Crew | Aerofun Virtual



 METAR AND TAF INFORMATION
METAR FOR LDDU
ADDS - METARS form results

(1315 UTC 20 October 2019)
Data provider http://aviationweather.gov/metar/data/
 
METAR text: LDDU 201300Z 16009KT 140V200 9999 FEW026 21/15 Q1021 NOSIG
Conditions at: LDDU (DUBROVNIK-CILIPI, HR) observed 1300 UTC 20 October 2019
Temperature: 21.0°C (70°F)
Dewpoint: 15.0°C (59°F) [RH = 69%]
Pressure (altimeter): 30.15 inches Hg (1021.0 mb)
Winds: from the SSE (160 degrees) at 10 MPH (9 knots; 4.6 m/s)
Visibility: 6 or more miles (10+ km)
Ceiling: at least 12,000 feet AGL
Clouds: few clouds at 2600 feet AGL
Weather: no significant weather observed at this time

METAR text: LDDU 201230Z 16009KT 9999 FEW026 22/14 Q1021 NOSIG
Conditions at: LDDU (DUBROVNIK-CILIPI, HR) observed 1230 UTC 20 October 2019
Temperature: 22.0°C (72°F)
Dewpoint: 14.0°C (57°F) [RH = 60%]
Pressure (altimeter): 30.15 inches Hg (1021.0 mb)
Winds: from the SSE (160 degrees) at 10 MPH (9 knots; 4.6 m/s)
Visibility: 6 or more miles (10+ km)
Ceiling: at least 12,000 feet AGL
Clouds: few clouds at 2600 feet AGL
Weather: no significant weather observed at this time

Forecast for: LDDU (DUBROVNIK-CILIPI, HR)
Text: TAF LDDU 201125Z 2012/2112 16009KT CAVOK TX23/2111Z TN16/2104Z
Forecast period: 1200 to 1500 UTC 20 October 2019
Forecast type: FROM: standard forecast or significant change
Winds: from the SSE (160 degrees) at 10 MPH (9 knots; 4.6 m/s)
Visibility: 6 or more miles 10+ km)
Ceiling: unknown
Clouds: missing
Weather: no significant weather forecast for this period
Text: BECMG 2015/2017 08006KT
Forecast period: 1500 UTC 20 October 2019 to 1000 UTC 21 October 2019
Forecast type: BECOMING: Conditions expected to become as follows by 1700 UTC 20 October 2019
Winds: from the E (80 degrees) at 7 MPH (6 knots; 3.1 m/s)
Visibility: 6 or more miles 10+ km)
Ceiling: unknown
Clouds: missing
Weather: no significant weather forecast for this period
Text: BECMG 2110/2112 26007KT
Forecast period: 1000 to 1200 UTC 21 October 2019
Forecast type: BECOMING: Conditions expected to become as follows by 1200 UTC 21 October 2019
Winds: from the W (260 degrees) at 8 MPH (7 knots; 3.6 m/s)
Visibility: 6 or more miles 10+ km)
Ceiling: unknown
Clouds: missing
Weather: no significant weather forecast for this period

 AIRPORT MAP

 RUNWAY INFORMATION
Runway 12 Runway length 10827 ft Runway width 148 ft
Runway elevation 519 ft Runway displaced threshold 488 ft Runway heading 118
Runway 30 Runway length 10827 ft Runway width 148 ft
Runway elevation 484 ft Runway displaced threshold 0 ft Runway heading 298

 AIRPORT FREQUENCIES
Type APP Name APP Frequency 123.6 MHZ
Type TWR Name TWR Frequency 129.5 MHZ

 AIRPORT NEAR NAVIGATION AIDS
Type NDB Name Dubrovnik Frequency 397 KHZ
Type VOR-DME Name Dubrovnik Frequency 115400 KHZ
Type NDB Name Dubrovnik Frequency 414 KHZ
Type NDB Name Kolocep Frequency 318 KHZ